createdAt,value
2018-05-23T00:00:09.773Z,51.38
2018-05-23T00:02:37.345Z,51.54
2018-05-23T00:05:04.939Z,51.43
2018-05-23T00:07:32.609Z,51.34
2018-05-23T00:10:00.195Z,51.01
2018-05-23T00:12:27.866Z,51.00
2018-05-23T00:14:55.469Z,51.15
2018-05-23T00:17:23.091Z,51.29
2018-05-23T00:19:51.621Z,51.36
2018-05-23T00:22:19.170Z,51.59
2018-05-23T00:24:46.798Z,51.77
2018-05-23T00:27:14.395Z,51.77
2018-05-23T00:29:42.007Z,51.64
2018-05-23T00:32:09.558Z,51.74
2018-05-23T00:34:37.113Z,51.63
2018-05-23T00:37:04.670Z,51.69
2018-05-23T00:39:32.195Z,51.64
2018-05-23T00:41:59.767Z,51.53
2018-05-23T00:44:27.297Z,51.53
2018-05-23T00:46:54.868Z,51.30
2018-05-23T00:49:22.435Z,51.27
2018-05-23T00:51:49.975Z,51.19
2018-05-23T00:54:17.560Z,51.25
2018-05-23T00:56:45.180Z,51.38
2018-05-23T00:59:12.741Z,51.33
2018-05-23T01:01:40.293Z,51.44
2018-05-23T01:04:07.868Z,51.74
2018-05-23T01:06:35.422Z,51.57
2018-05-23T01:09:03.011Z,51.68
2018-05-23T01:11:30.605Z,51.72
2018-05-23T01:13:58.210Z,51.68
2018-05-23T01:16:25.871Z,51.72
2018-05-23T01:18:53.359Z,51.55
2018-05-23T01:21:20.875Z,51.46
2018-05-23T01:23:48.433Z,51.37
2018-05-23T01:26:15.961Z,51.36
2018-05-23T01:28:43.623Z,51.33
2018-05-23T01:31:11.178Z,51.31
2018-05-23T01:33:38.804Z,51.30
2018-05-23T01:36:06.339Z,51.41
2018-05-23T01:38:33.960Z,51.32
2018-05-23T01:41:01.517Z,51.39
2018-05-23T01:43:29.111Z,51.32
2018-05-23T01:45:56.705Z,51.30
2018-05-23T01:48:24.338Z,51.36
2018-05-23T01:50:51.949Z,51.43
2018-05-23T01:53:19.536Z,51.52
2018-05-23T01:55:47.176Z,51.35
2018-05-23T01:58:14.796Z,51.27
2018-05-23T02:00:42.351Z,51.24
2018-05-23T02:03:11.568Z,51.38
2018-05-23T02:05:39.150Z,51.53
2018-05-23T02:08:06.731Z,51.75
2018-05-23T02:10:34.304Z,51.89
2018-05-23T02:13:01.851Z,52.00
2018-05-23T02:15:29.380Z,51.93
2018-05-23T02:17:57.553Z,52.21
2018-05-23T02:20:25.157Z,52.46
2018-05-23T02:22:52.704Z,52.55
2018-05-23T02:25:20.363Z,52.52
2018-05-23T02:27:47.926Z,52.63
2018-05-23T02:30:15.519Z,52.55
2018-05-23T02:32:43.111Z,52.71
2018-05-23T02:35:10.700Z,52.75
2018-05-23T02:37:38.384Z,52.66
2018-05-23T02:40:06.074Z,52.77
2018-05-23T02:42:33.657Z,52.74
2018-05-23T02:45:01.276Z,52.87
2018-05-23T02:47:28.817Z,52.94
2018-05-23T02:49:56.374Z,53.09
2018-05-23T02:52:23.916Z,52.86
2018-05-23T02:54:51.466Z,52.63
2018-05-23T02:57:20.012Z,52.54
2018-05-23T02:59:47.580Z,52.54
2018-05-23T03:02:15.173Z,52.60
2018-05-23T03:04:42.736Z,52.62
2018-05-23T03:07:10.324Z,52.65
2018-05-23T03:09:37.909Z,52.43
2018-05-23T03:12:05.431Z,52.08
2018-05-23T03:14:33.038Z,52.09
2018-05-23T03:17:00.786Z,52.09
2018-05-23T03:19:28.328Z,51.94
2018-05-23T03:21:55.898Z,51.73
2018-05-23T03:24:23.496Z,51.63
2018-05-23T03:26:51.085Z,51.65
2018-05-23T03:29:18.712Z,51.58
2018-05-23T03:31:46.282Z,51.48
2018-05-23T03:34:13.896Z,51.45
2018-05-23T03:36:41.457Z,51.91
2018-05-23T03:39:09.585Z,51.64
2018-05-23T03:41:37.163Z,51.66
2018-05-23T03:44:04.755Z,51.59
2018-05-23T03:46:33.249Z,51.70
2018-05-23T03:49:00.852Z,51.73
2018-05-23T03:51:28.446Z,51.90
2018-05-23T03:53:56.006Z,51.82
2018-05-23T03:56:23.645Z,51.53
2018-05-23T03:58:51.255Z,51.72
2018-05-23T04:01:30.504Z,51.62
2018-05-23T04:04:09.856Z,51.56
2018-05-23T04:06:49.241Z,51.20
2018-05-23T04:09:16.803Z,51.10
2018-05-23T04:11:44.342Z,51.08
2018-05-23T04:14:11.890Z,51.09
2018-05-23T04:16:39.448Z,51.34
2018-05-23T04:19:07.005Z,51.34
2018-05-23T04:21:34.629Z,51.36
2018-05-23T04:24:02.186Z,51.33
2018-05-23T04:26:29.983Z,51.04
2018-05-23T04:28:57.599Z,51.05
2018-05-23T04:31:25.263Z,51.13
2018-05-23T04:33:52.913Z,51.16
2018-05-23T04:36:20.539Z,51.24
2018-05-23T04:38:48.141Z,50.61
2018-05-23T04:41:15.808Z,50.79
2018-05-23T04:43:43.578Z,50.39
2018-05-23T04:46:11.280Z,50.08
2018-05-23T04:48:39.046Z,49.91
2018-05-23T04:51:06.608Z,49.85
2018-05-23T04:53:34.202Z,49.76
2018-05-23T04:56:01.861Z,49.97
2018-05-23T04:58:29.530Z,50.04
2018-05-23T05:00:57.047Z,49.39
2018-05-23T05:03:24.705Z,49.24
2018-05-23T05:05:52.289Z,49.19
2018-05-23T05:08:19.843Z,49.24
2018-05-23T05:10:47.387Z,49.20
2018-05-23T05:13:14.997Z,49.31
2018-05-23T05:15:42.569Z,48.95
2018-05-23T05:18:10.187Z,48.90
2018-05-23T05:20:37.716Z,48.75
2018-05-23T05:23:05.313Z,48.72
2018-05-23T05:25:32.865Z,48.69
2018-05-23T05:28:00.461Z,48.65
2018-05-23T05:30:28.017Z,48.64
2018-05-23T05:32:56.432Z,48.70
2018-05-23T05:35:24.090Z,48.77
2018-05-23T05:37:51.714Z,48.82
2018-05-23T05:40:20.376Z,48.96
2018-05-23T05:42:47.951Z,49.04
2018-05-23T05:45:15.541Z,49.00
2018-05-23T05:47:43.157Z,48.92
2018-05-23T05:50:10.735Z,48.96
2018-05-23T05:52:38.343Z,48.85
2018-05-23T05:55:05.958Z,48.86
2018-05-23T05:57:33.889Z,48.81
2018-05-23T06:00:01.556Z,48.74
2018-05-23T06:02:29.140Z,48.73
2018-05-23T06:04:56.717Z,48.81
2018-05-23T06:07:24.331Z,48.70
2018-05-23T06:09:52.578Z,48.64
2018-05-23T06:12:20.169Z,48.43
2018-05-23T06:14:47.788Z,48.42
2018-05-23T06:17:15.362Z,48.23
2018-05-23T06:19:42.897Z,48.10
2018-05-23T06:22:10.451Z,48.00
2018-05-23T06:24:38.083Z,47.96
2018-05-23T06:27:05.625Z,47.85
2018-05-23T06:29:33.189Z,47.72
2018-05-23T06:32:00.769Z,47.54
2018-05-23T06:34:28.375Z,47.35
2018-05-23T06:36:56.192Z,47.20
2018-05-23T06:39:23.755Z,46.91
2018-05-23T06:41:51.423Z,46.80
2018-05-23T06:44:19.025Z,46.72
2018-05-23T06:46:46.696Z,46.16
2018-05-23T06:49:14.291Z,46.33
2018-05-23T06:51:41.890Z,46.06
2018-05-23T06:54:09.464Z,45.73
2018-05-23T06:56:37.019Z,45.63
2018-05-23T06:59:04.650Z,45.10
2018-05-23T07:01:32.249Z,45.42
2018-05-23T07:03:59.865Z,44.67
2018-05-23T07:06:27.410Z,44.21
2018-05-23T07:08:55.002Z,43.41
2018-05-23T07:11:22.566Z,43.31
2018-05-23T07:13:50.201Z,42.73
2018-05-23T07:16:17.768Z,42.28
2018-05-23T07:18:46.252Z,41.99
2018-05-23T07:21:14.616Z,41.53
2018-05-23T07:23:42.171Z,41.07
2018-05-23T07:26:09.731Z,40.35
2018-05-23T07:28:37.295Z,40.18
2018-05-23T07:31:04.849Z,39.61
2018-05-23T07:33:33.349Z,39.33
2018-05-23T07:36:00.897Z,39.31
2018-05-23T07:38:29.596Z,39.10
2018-05-23T07:40:57.231Z,38.97
2018-05-23T07:43:24.882Z,38.29
2018-05-23T07:45:52.600Z,38.32
2018-05-23T07:48:20.171Z,38.37
2018-05-23T07:50:47.730Z,38.10
2018-05-23T07:53:15.282Z,37.96
2018-05-23T07:55:42.880Z,37.60
2018-05-23T07:58:10.432Z,37.77
2018-05-23T08:00:38.142Z,37.48
2018-05-23T08:03:05.762Z,37.17
2018-05-23T08:05:33.479Z,36.98
2018-05-23T08:08:01.019Z,36.91
2018-05-23T08:10:28.635Z,36.99
2018-05-23T08:12:56.287Z,36.76
2018-05-23T08:15:23.885Z,36.36
2018-05-23T08:17:51.493Z,36.41
2018-05-23T08:20:19.059Z,35.94
2018-05-23T08:22:46.774Z,36.01
2018-05-23T08:25:14.364Z,36.00
2018-05-23T08:27:41.986Z,35.21
2018-05-23T08:30:09.600Z,35.17
2018-05-23T08:32:37.186Z,35.01
2018-05-23T08:35:04.814Z,35.54
2018-05-23T08:37:32.434Z,35.43
2018-05-23T08:40:00.152Z,34.91
2018-05-23T08:42:27.701Z,34.70
2018-05-23T08:44:55.279Z,34.37
2018-05-23T08:47:22.880Z,34.10
2018-05-23T08:49:50.580Z,34.38
2018-05-23T08:52:18.173Z,33.61
2018-05-23T08:54:45.748Z,33.31
2018-05-23T08:57:13.364Z,33.14
2018-05-23T08:59:41.044Z,32.91
2018-05-23T09:02:08.615Z,32.90
2018-05-23T09:04:36.202Z,33.01
2018-05-23T09:07:03.800Z,32.74
2018-05-23T09:09:31.576Z,32.21
2018-05-23T09:11:59.273Z,32.17
2018-05-23T09:14:26.873Z,32.24
2018-05-23T09:16:55.138Z,32.45
2018-05-23T09:19:23.489Z,32.51
2018-05-23T09:21:51.415Z,32.84
2018-05-23T09:24:18.973Z,32.88
2018-05-23T09:26:46.661Z,33.41
2018-05-23T09:29:14.325Z,33.32
2018-05-23T09:31:42.263Z,33.59
2018-05-23T09:34:10.027Z,33.70
2018-05-23T09:36:37.582Z,33.43
2018-05-23T09:39:06.186Z,33.20
2018-05-23T09:41:33.978Z,33.28
2018-05-23T09:44:01.768Z,32.80
2018-05-23T09:46:29.409Z,31.94
2018-05-23T09:48:56.945Z,31.51
2018-05-23T09:51:24.552Z,31.75
2018-05-23T09:53:52.251Z,31.72
2018-05-23T09:56:20.009Z,31.24
2018-05-23T09:58:47.582Z,31.35
2018-05-23T10:01:15.234Z,32.02
2018-05-23T10:03:42.982Z,32.00
2018-05-23T10:06:10.560Z,32.28
2018-05-23T10:08:38.169Z,32.48
2018-05-23T10:11:05.793Z,32.72
2018-05-23T10:13:33.359Z,33.27
2018-05-23T10:16:00.956Z,33.53
2018-05-23T10:18:28.565Z,33.92
2018-05-23T10:20:57.134Z,34.25
2018-05-23T10:23:24.758Z,35.82
2018-05-23T10:25:52.374Z,38.19
2018-05-23T10:28:19.937Z,39.77
2018-05-23T10:30:47.575Z,41.83
2018-05-23T10:33:15.281Z,43.02
2018-05-23T10:35:42.977Z,43.67
2018-05-23T10:38:11.400Z,43.99
2018-05-23T10:40:39.063Z,44.29
2018-05-23T10:43:06.747Z,44.88
2018-05-23T10:45:34.381Z,45.28
2018-05-23T10:48:01.929Z,45.55
2018-05-23T10:50:29.595Z,46.07
2018-05-23T10:52:57.275Z,46.03
2018-05-23T10:55:24.940Z,46.07
2018-05-23T10:57:52.622Z,45.74
2018-05-23T11:00:20.221Z,45.72
2018-05-23T11:02:47.891Z,46.00
2018-05-23T11:05:15.469Z,45.57
2018-05-23T11:07:43.358Z,45.65
2018-05-23T11:10:11.005Z,45.65
2018-05-23T11:12:39.151Z,45.29
2018-05-23T11:15:06.802Z,45.35
2018-05-23T11:17:34.392Z,45.80
2018-05-23T11:20:01.939Z,46.08
2018-05-23T11:22:29.527Z,45.83
2018-05-23T11:24:57.084Z,46.04
2018-05-23T11:27:24.658Z,46.37
2018-05-23T11:29:52.284Z,46.96
2018-05-23T11:32:19.916Z,47.44
2018-05-23T11:34:47.510Z,47.36
2018-05-23T11:37:15.140Z,47.47
2018-05-23T11:39:42.709Z,47.69
2018-05-23T11:42:10.404Z,47.41
2018-05-23T11:44:38.025Z,47.76
2018-05-23T11:47:05.617Z,47.38
2018-05-23T11:49:33.214Z,47.75
2018-05-23T11:52:00.813Z,47.58
2018-05-23T11:54:28.505Z,47.96
2018-05-23T11:56:56.144Z,48.17
2018-05-23T11:59:23.800Z,47.95
2018-05-23T12:01:51.432Z,47.47
2018-05-23T12:04:19.048Z,47.25
2018-05-23T12:06:46.656Z,47.13
2018-05-23T12:09:14.275Z,46.96
2018-05-23T12:11:41.864Z,47.14
2018-05-23T12:14:09.416Z,47.09
2018-05-23T12:16:37.531Z,47.18
2018-05-23T12:19:05.125Z,47.43
2018-05-23T12:21:32.785Z,47.84
2018-05-23T12:24:00.333Z,47.60
2018-05-23T12:26:27.879Z,47.36
2018-05-23T12:28:55.514Z,47.13
2018-05-23T12:31:23.128Z,46.46
2018-05-23T12:33:50.695Z,45.78
2018-05-23T12:36:18.247Z,45.48
2018-05-23T12:38:45.899Z,43.76
2018-05-23T12:41:13.517Z,44.25
2018-05-23T12:43:41.160Z,43.90
2018-05-23T12:46:08.841Z,44.01
2018-05-23T12:48:36.483Z,43.37
2018-05-23T12:51:04.123Z,43.27
2018-05-23T12:53:31.793Z,42.86
2018-05-23T12:56:00.317Z,42.76
2018-05-23T12:58:28.060Z,43.24
2018-05-23T13:00:55.686Z,43.16
2018-05-23T13:03:23.262Z,43.05
2018-05-23T13:05:51.009Z,42.51
2018-05-23T13:08:18.570Z,42.53
2018-05-23T13:10:46.175Z,42.01
2018-05-23T13:13:13.800Z,42.24
2018-05-23T13:15:41.451Z,41.84
2018-05-23T13:18:09.088Z,42.03
2018-05-23T13:20:36.712Z,41.97
2018-05-23T13:23:04.382Z,41.75
2018-05-23T13:25:31.966Z,42.26
2018-05-23T13:27:59.597Z,42.17
2018-05-23T13:30:27.271Z,41.61
2018-05-23T13:32:54.893Z,41.50
2018-05-23T13:35:22.462Z,41.31
2018-05-23T13:37:50.198Z,40.97
2018-05-23T13:40:17.792Z,40.84
2018-05-23T13:42:45.429Z,40.96
2018-05-23T13:45:13.063Z,40.70
2018-05-23T13:47:40.697Z,40.73
2018-05-23T13:50:09.530Z,40.96
2018-05-23T13:52:37.149Z,40.94
2018-05-23T13:55:05.095Z,40.88
2018-05-23T13:57:32.743Z,40.55
2018-05-23T14:00:00.449Z,40.51
2018-05-23T14:02:28.483Z,40.48
2018-05-23T14:04:56.063Z,39.98
2018-05-23T14:07:23.687Z,39.72
2018-05-23T14:09:51.357Z,38.86
2018-05-23T14:12:18.960Z,39.17
2018-05-23T14:14:46.562Z,39.16
2018-05-23T14:17:14.125Z,39.33
2018-05-23T14:19:41.807Z,39.79
2018-05-23T14:22:09.409Z,39.01
2018-05-23T14:24:36.991Z,38.29
2018-05-23T14:27:04.594Z,38.10
2018-05-23T14:29:32.209Z,38.08
2018-05-23T14:31:59.772Z,37.25
2018-05-23T14:34:27.377Z,37.28
2018-05-23T14:36:54.998Z,37.38
2018-05-23T14:39:22.644Z,37.29
2018-05-23T14:41:50.215Z,37.04
2018-05-23T14:44:17.784Z,36.85
2018-05-23T14:46:45.425Z,36.29
2018-05-23T14:49:13.060Z,36.16
2018-05-23T14:51:40.692Z,36.03
2018-05-23T14:54:08.333Z,36.35
2018-05-23T14:56:35.989Z,36.37
2018-05-23T14:59:03.577Z,36.53
2018-05-23T15:01:31.128Z,36.75
2018-05-23T15:03:58.746Z,36.64
2018-05-23T15:06:26.302Z,36.71
2018-05-23T15:08:53.916Z,36.60
2018-05-23T15:11:21.491Z,36.26
2018-05-23T15:13:49.080Z,36.25
2018-05-23T15:16:16.656Z,36.23
2018-05-23T15:18:44.311Z,36.29
2018-05-23T15:21:11.914Z,36.06
2018-05-23T15:23:39.534Z,36.44
2018-05-23T15:26:07.125Z,36.47
2018-05-23T15:28:34.968Z,36.14
2018-05-23T15:31:02.658Z,35.98
2018-05-23T15:33:30.388Z,36.12
2018-05-23T15:35:57.985Z,36.20
2018-05-23T15:38:25.613Z,36.17
2018-05-23T15:40:53.309Z,35.77
2018-05-23T15:43:20.865Z,36.00
2018-05-23T15:45:48.437Z,35.66
2018-05-23T15:48:16.004Z,35.80
2018-05-23T15:50:43.626Z,35.72
2018-05-23T15:53:11.249Z,35.43
2018-05-23T15:55:38.813Z,35.30
2018-05-23T15:58:06.405Z,35.35
2018-05-23T16:00:34.055Z,35.51
2018-05-23T16:03:01.976Z,35.62
2018-05-23T16:05:29.522Z,35.42
2018-05-23T16:07:57.076Z,35.59
2018-05-23T16:10:24.753Z,35.50
2018-05-23T16:12:52.341Z,35.31
2018-05-23T16:15:19.961Z,35.06
2018-05-23T16:17:47.653Z,34.89
2018-05-23T16:20:15.463Z,34.76
2018-05-23T16:25:15.414Z,33.38
2018-05-23T16:27:43.081Z,33.29
2018-05-23T16:30:10.672Z,32.95
2018-05-23T16:32:38.216Z,32.59
2018-05-23T16:35:05.776Z,32.33
2018-05-23T16:37:33.376Z,32.36
2018-05-23T16:40:01.224Z,32.41
2018-05-23T16:42:29.187Z,32.62
2018-05-23T16:44:56.793Z,32.91
2018-05-23T16:47:24.415Z,32.55
2018-05-23T16:49:52.012Z,32.67
2018-05-23T16:52:19.633Z,32.42
2018-05-23T16:54:47.265Z,32.42
2018-05-23T16:57:14.828Z,32.40
2018-05-23T16:59:42.445Z,32.34
2018-05-23T17:02:10.067Z,32.24
2018-05-23T17:04:37.660Z,32.39
2018-05-23T17:07:05.285Z,32.55
2018-05-23T17:09:32.820Z,32.58
2018-05-23T17:12:00.530Z,32.75
2018-05-23T17:14:28.180Z,33.01
2018-05-23T17:16:55.934Z,32.89
2018-05-23T17:19:23.572Z,33.10
2018-05-23T17:21:51.356Z,33.04
2018-05-23T17:24:18.980Z,33.20
2018-05-23T17:26:46.585Z,33.34
2018-05-23T17:29:14.137Z,33.13
2018-05-23T17:31:41.830Z,33.20
2018-05-23T17:34:09.396Z,33.19
2018-05-23T17:36:36.979Z,32.88
2018-05-23T17:39:04.528Z,32.62
2018-05-23T17:41:32.118Z,32.73
2018-05-23T17:43:59.698Z,32.63
2018-05-23T17:46:27.343Z,32.60
2018-05-23T17:48:54.911Z,32.50
2018-05-23T17:51:22.480Z,32.36
2018-05-23T17:53:50.035Z,32.47
2018-05-23T17:56:17.629Z,32.55
2018-05-23T17:58:45.189Z,33.31
2018-05-23T18:01:15.930Z,32.97
2018-05-23T18:03:43.481Z,32.95
2018-05-23T18:06:12.150Z,32.66
2018-05-23T18:08:39.697Z,33.01
2018-05-23T18:11:07.287Z,32.63
2018-05-23T18:13:34.873Z,32.68
2018-05-23T18:16:02.501Z,32.62
2018-05-23T18:18:30.120Z,32.52
2018-05-23T18:20:57.711Z,32.49
2018-05-23T18:23:27.626Z,32.91
2018-05-23T18:25:56.405Z,32.56
2018-05-23T18:28:24.038Z,32.58
2018-05-23T18:30:51.661Z,32.46
2018-05-23T18:33:19.226Z,32.47
2018-05-23T18:35:46.843Z,32.81
2018-05-23T18:38:14.509Z,32.66
2018-05-23T18:40:43.098Z,32.69
2018-05-23T18:43:11.217Z,32.49
2018-05-23T18:45:38.802Z,32.50
2018-05-23T18:48:06.490Z,32.70
2018-05-23T18:50:34.354Z,32.64
2018-05-23T18:53:03.111Z,32.81
2018-05-23T18:55:30.842Z,32.67
2018-05-23T18:57:58.506Z,32.85
2018-05-23T19:00:26.819Z,32.86
2018-05-23T19:02:54.445Z,32.78
2018-05-23T19:05:22.238Z,32.70
2018-05-23T19:07:49.872Z,32.77
2018-05-23T19:10:17.557Z,32.82
2018-05-23T19:12:45.374Z,32.75
2018-05-23T19:15:13.550Z,32.90
2018-05-23T19:17:41.289Z,32.74
2018-05-23T19:20:09.005Z,32.92
2018-05-23T19:22:36.614Z,32.97
2018-05-23T19:25:04.225Z,33.06
2018-05-23T19:27:31.909Z,33.18
2018-05-23T19:30:00.216Z,33.33
2018-05-23T19:32:27.773Z,33.49
2018-05-23T19:34:55.453Z,33.62
2018-05-23T19:37:23.095Z,33.65
2018-05-23T19:39:50.694Z,33.80
2018-05-23T19:42:18.298Z,33.98
2018-05-23T19:44:46.120Z,34.03
2018-05-23T19:47:13.805Z,34.24
2018-05-23T19:49:41.447Z,34.48
2018-05-23T19:52:09.048Z,34.54
2018-05-23T19:54:36.701Z,34.61
2018-05-23T19:57:04.333Z,34.79
2018-05-23T19:59:31.993Z,35.01
2018-05-23T20:01:59.710Z,34.95
2018-05-23T20:04:27.264Z,35.04
2018-05-23T20:06:54.858Z,35.19
2018-05-23T20:09:22.444Z,35.38
2018-05-23T20:11:50.092Z,35.56
2018-05-23T20:14:17.899Z,35.62
2018-05-23T20:16:45.355Z,35.80
2018-05-23T20:19:12.950Z,35.88
2018-05-23T20:21:40.622Z,36.02
2018-05-23T20:24:08.170Z,36.22
2018-05-23T20:26:35.721Z,36.35
2018-05-23T20:29:03.279Z,36.55
2018-05-23T20:31:30.857Z,36.66
2018-05-23T20:33:58.474Z,36.95
2018-05-23T20:36:26.009Z,37.03
2018-05-23T20:38:53.564Z,37.17
2018-05-23T20:41:21.120Z,37.34
2018-05-23T20:43:48.684Z,37.51
2018-05-23T20:46:16.973Z,37.87
2018-05-23T20:48:45.688Z,37.91
2018-05-23T20:51:13.231Z,38.00
2018-05-23T20:53:40.835Z,38.12
2018-05-23T20:56:08.432Z,38.32
2018-05-23T20:58:36.146Z,38.51
2018-05-23T21:01:03.650Z,38.61
2018-05-23T21:03:31.211Z,38.71
2018-05-23T21:05:58.803Z,38.89
2018-05-23T21:08:26.469Z,38.99
2018-05-23T21:10:54.069Z,39.00
2018-05-23T21:13:21.692Z,39.06
2018-05-23T21:15:49.354Z,39.16
2018-05-23T21:18:16.938Z,39.30
2018-05-23T21:20:44.531Z,39.37
2018-05-23T21:23:12.091Z,39.50
2018-05-23T21:25:39.676Z,39.56
2018-05-23T21:28:07.228Z,39.90
2018-05-23T21:30:34.794Z,39.82
2018-05-23T21:33:02.757Z,39.75
2018-05-23T21:35:30.378Z,39.88
2018-05-23T21:37:57.979Z,39.87
2018-05-23T21:40:25.638Z,39.95
2018-05-23T21:42:53.251Z,40.04
2018-05-23T21:45:20.819Z,40.10
2018-05-23T21:47:48.356Z,40.37
2018-05-23T21:50:16.809Z,40.65
2018-05-23T21:52:44.351Z,40.47
2018-05-23T21:55:12.005Z,40.42
2018-05-23T21:57:39.525Z,40.50
2018-05-23T22:00:07.096Z,40.45
2018-05-23T22:02:34.676Z,40.67
2018-05-23T22:05:02.882Z,40.71
2018-05-23T22:07:31.176Z,40.80
2018-05-23T22:09:58.731Z,40.69
2018-05-23T22:12:26.343Z,40.78
2018-05-23T22:14:53.893Z,40.77
2018-05-23T22:17:21.931Z,40.99
2018-05-23T22:19:49.490Z,40.97
2018-05-23T22:22:17.448Z,41.30
2018-05-23T22:24:45.019Z,41.36
2018-05-23T22:27:12.553Z,41.28
2018-05-23T22:29:40.172Z,41.33
2018-05-23T22:32:07.730Z,41.42
2018-05-23T22:34:35.294Z,41.33
2018-05-23T22:37:02.817Z,41.25
2018-05-23T22:39:30.387Z,41.30
2018-05-23T22:41:57.934Z,41.71
2018-05-23T22:44:25.470Z,41.42
2018-05-23T22:46:53.013Z,41.86
2018-05-23T22:49:20.537Z,41.67
2018-05-23T22:51:48.082Z,41.63
2018-05-23T22:54:15.612Z,41.79
2018-05-23T22:56:43.145Z,41.84
2018-05-23T22:59:10.753Z,41.91
2018-05-23T23:01:38.331Z,42.11
2018-05-23T23:04:05.879Z,42.06
2018-05-23T23:06:33.452Z,42.25
2018-05-23T23:09:01.012Z,42.49
2018-05-23T23:11:28.591Z,42.37
2018-05-23T23:13:56.123Z,42.36
2018-05-23T23:16:23.683Z,42.49
2018-05-23T23:18:51.289Z,42.52
2018-05-23T23:21:18.891Z,42.79
2018-05-23T23:23:46.545Z,42.92
2018-05-23T23:26:14.110Z,42.76
2018-05-23T23:28:41.647Z,43.06
2018-05-23T23:31:09.195Z,43.13
2018-05-23T23:33:36.738Z,42.93
2018-05-23T23:36:04.345Z,43.08
2018-05-23T23:38:31.930Z,43.35
2018-05-23T23:40:59.539Z,43.34
2018-05-23T23:43:27.084Z,43.53
2018-05-23T23:45:54.690Z,43.50
2018-05-23T23:48:22.212Z,43.46
2018-05-23T23:50:49.788Z,43.41
2018-05-23T23:53:17.385Z,43.92
2018-05-23T23:55:44.960Z,43.64
2018-05-23T23:58:12.505Z,43.56
